Time;durP1;ratioP1;P1;durP2;ratioP2;P2;SDS_P1;SDS_P2;PMS_P1;PMS_P2;Temp;Humidity;BMP_temperature;BMP_pressure;BME280_temperature;BME280_humidity;BME280_pressure;Samples;Min_cycle;Max_cycle;Signal;HPM_P1;HPM_P2
2023/07/22 00:00:56;;;;;;;82.95;31.67;;;;;;;;;;5024278;28;20029;-71
2023/07/22 00:03:23;;;;;;;70.38;29.60;;;;;;;;;;5025214;28;20235;-71
2023/07/22 00:05:49;;;;;;;76.80;32.00;;;;;;;;;;5025385;28;20092;-72
2023/07/22 00:08:15;;;;;;;83.75;33.58;;;;;;;;;;4997284;28;20127;-71
2023/07/22 00:10:43;;;;;;;83.20;33.63;;;;;;;;;;5021688;28;20052;-73
2023/07/22 00:13:09;;;;;;;86.15;35.53;;;;;;;;;;5027192;28;20113;-72
2023/07/22 00:15:35;;;;;;;82.88;35.83;;;;;;;;;;5027708;28;20100;-71
2023/07/22 00:18:01;;;;;;;97.60;37.47;;;;;;;;;;5025357;28;20136;-72
2023/07/22 00:20:28;;;;;;;119.38;40.88;;;;;;;;;;5023834;28;20056;-72
2023/07/22 00:22:55;;;;;;;97.15;40.38;;;;;;;;;;5000774;28;20160;-72
2023/07/22 00:25:22;;;;;;;97.95;38.50;;;;;;;;;;5022292;28;20029;-72
2023/07/22 00:27:48;;;;;;;99.03;41.67;;;;;;;;;;5025512;28;20120;-71
2023/07/22 00:30:14;;;;;;;95.82;41.92;;;;;;;;;;5005361;28;20197;-71
2023/07/22 00:32:41;;;;;;;91.68;40.13;;;;;;;;;;5004304;28;20021;-72
2023/07/22 00:35:07;;;;;;;94.85;41.67;;;;;;;;;;5024007;28;20041;-72
2023/07/22 00:37:33;;;;;;;100.30;42.55;;;;;;;;;;5006636;28;20120;-72
2023/07/22 00:40:03;;;;;;;98.45;43.80;;;;;;;;;;5024546;28;20064;-72
2023/07/22 00:42:29;;;;;;;97.15;44.80;;;;;;;;;;5021671;28;20044;-72
2023/07/22 00:44:56;;;;;;;104.60;43.42;;;;;;;;;;5024669;28;20043;-72
2023/07/22 00:47:22;;;;;;;94.65;42.22;;;;;;;;;;5025772;28;20107;-72
2023/07/22 00:49:49;;;;;;;95.97;44.55;;;;;;;;;;5025900;28;20048;-72
2023/07/22 00:52:16;;;;;;;97.80;45.72;;;;;;;;;;5006113;28;20120;-72
2023/07/22 00:54:42;;;;;;;96.75;43.67;;;;;;;;;;4997634;28;20037;-72
2023/07/22 00:57:10;;;;;;;91.18;42.25;;;;;;;;;;5024951;28;20083;-71
2023/07/22 00:59:36;;;;;;;94.97;43.10;;;;;;;;;;5026044;28;20024;-71
2023/07/22 01:02:02;;;;;;;94.72;43.17;;;;;;;;;;5024093;28;20033;-71
2023/07/22 01:04:28;;;;;;;93.60;41.95;;;;;;;;;;5015936;28;20068;-72
2023/07/22 01:06:55;;;;;;;102.07;43.72;;;;;;;;;;4999506;28;20034;-71
2023/07/22 01:09:21;;;;;;;99.32;42.70;;;;;;;;;;5005496;28;20060;-71
2023/07/22 01:11:48;;;;;;;95.85;42.65;;;;;;;;;;4998432;28;20029;-71
2023/07/22 01:14:16;;;;;;;90.63;41.22;;;;;;;;;;5011830;28;20043;-70
2023/07/22 01:16:42;;;;;;;100.25;44.33;;;;;;;;;;5007588;28;20065;-71
2023/07/22 01:19:09;;;;;;;98.75;43.40;;;;;;;;;;5026234;28;20033;-71
2023/07/22 01:21:37;;;;;;;99.18;43.72;;;;;;;;;;5007820;28;20022;-71
2023/07/22 01:24:03;;;;;;;104.53;46.17;;;;;;;;;;5007538;28;20038;-71
2023/07/22 01:26:29;;;;;;;106.10;44.38;;;;;;;;;;5024227;28;20029;-72
2023/07/22 01:29:07;;;;;;;101.50;45.60;;;;;;;;;;5006462;28;20029;-71
2023/07/22 01:31:37;;;;;;;113.30;45.28;;;;;;;;;;5022460;28;20031;-71
2023/07/22 01:34:04;;;;;;;121.55;46.45;;;;;;;;;;5009305;28;20365;-71
2023/07/22 01:36:30;;;;;;;111.43;45.10;;;;;;;;;;5023763;28;20174;-71
2023/07/22 01:38:56;;;;;;;115.30;46.60;;;;;;;;;;5025215;28;20043;-71
2023/07/22 01:41:23;;;;;;;115.43;46.95;;;;;;;;;;5022196;28;20045;-71
2023/07/22 01:43:49;;;;;;;118.72;47.10;;;;;;;;;;4995044;28;20110;-71
2023/07/22 01:46:15;;;;;;;119.95;49.05;;;;;;;;;;4989722;28;20049;-71
2023/07/22 01:48:42;;;;;;;117.45;47.95;;;;;;;;;;5025772;28;20033;-71
2023/07/22 01:51:08;;;;;;;125.25;49.28;;;;;;;;;;5005789;28;20103;-72
2023/07/22 01:53:35;;;;;;;119.72;46.40;;;;;;;;;;4989243;28;20384;-72
2023/07/22 01:56:01;;;;;;;121.00;47.50;;;;;;;;;;5026182;28;20032;-72
2023/07/22 01:58:27;;;;;;;113.53;48.67;;;;;;;;;;5025449;28;20049;-72
2023/07/22 02:00:54;;;;;;;119.45;48.10;;;;;;;;;;4996225;28;20022;-72
2023/07/22 02:03:20;;;;;;;113.55;45.50;;;;;;;;;;5018023;28;20030;-70
2023/07/22 02:05:47;;;;;;;107.45;45.13;;;;;;;;;;5000549;28;20026;-72
2023/07/22 02:08:13;;;;;;;115.80;46.72;;;;;;;;;;5025710;28;20355;-71
2023/07/22 02:10:40;;;;;;;114.93;47.50;;;;;;;;;;5008193;28;20033;-71
2023/07/22 02:13:06;;;;;;;111.18;45.20;;;;;;;;;;5024423;28;20040;-72
2023/07/22 02:15:32;;;;;;;111.63;47.72;;;;;;;;;;5022581;28;20421;-71
2023/07/22 02:17:59;;;;;;;109.07;46.65;;;;;;;;;;5006073;28;20048;-72
2023/07/22 02:20:28;;;;;;;113.20;46.90;;;;;;;;;;5007656;28;20080;-72
2023/07/22 02:22:55;;;;;;;118.40;48.53;;;;;;;;;;4991845;28;20022;-72
2023/07/22 02:25:21;;;;;;;120.15;47.65;;;;;;;;;;5024419;28;20025;-71
2023/07/22 02:27:47;;;;;;;118.35;47.35;;;;;;;;;;5023151;28;20040;-72
2023/07/22 02:30:13;;;;;;;109.63;46.50;;;;;;;;;;4998338;28;20416;-71
2023/07/22 02:32:40;;;;;;;120.20;48.95;;;;;;;;;;4996497;28;20027;-71
2023/07/22 02:35:07;;;;;;;120.55;48.05;;;;;;;;;;5022818;28;20064;-71
2023/07/22 02:37:34;;;;;;;116.15;47.92;;;;;;;;;;5023401;28;20041;-71
2023/07/22 02:40:00;;;;;;;126.75;50.50;;;;;;;;;;5026084;28;20465;-71
2023/07/22 02:42:26;;;;;;;122.57;49.08;;;;;;;;;;5023513;28;20399;-71
2023/07/22 02:44:53;;;;;;;120.70;48.63;;;;;;;;;;5007198;28;20121;-72
2023/07/22 02:47:19;;;;;;;125.50;49.33;;;;;;;;;;5034858;28;20085;-71
2023/07/22 02:49:45;;;;;;;128.77;50.75;;;;;;;;;;5016136;28;20039;-71
2023/07/22 02:52:11;;;;;;;125.57;50.28;;;;;;;;;;5027538;28;20038;-71
2023/07/22 02:54:41;;;;;;;122.72;48.97;;;;;;;;;;4990032;28;20033;-71
2023/07/22 02:57:07;;;;;;;115.28;47.92;;;;;;;;;;5008474;28;20452;-72
2023/07/22 02:59:33;;;;;;;114.03;47.75;;;;;;;;;;5003257;28;20033;-70
2023/07/22 03:01:59;;;;;;;118.25;46.95;;;;;;;;;;5022342;28;20080;-72
2023/07/22 03:04:26;;;;;;;116.68;47.65;;;;;;;;;;4981340;28;20033;-71
2023/07/22 03:06:52;;;;;;;112.97;46.17;;;;;;;;;;5029048;28;20079;-71
2023/07/22 03:09:18;;;;;;;114.03;48.20;;;;;;;;;;5009706;28;20025;-73
2023/07/22 03:11:44;;;;;;;116.88;46.58;;;;;;;;;;5027962;28;20037;-72
2023/07/22 03:14:10;;;;;;;112.35;46.10;;;;;;;;;;5024028;28;20060;-71
2023/07/22 03:16:36;;;;;;;113.03;46.78;;;;;;;;;;5029473;28;20018;-72
2023/07/22 03:19:02;;;;;;;117.07;46.55;;;;;;;;;;5029094;28;20398;-72
2023/07/22 03:21:29;;;;;;;105.70;45.72;;;;;;;;;;5022936;28;20025;-71
2023/07/22 03:23:55;;;;;;;118.60;44.63;;;;;;;;;;5005693;28;20034;-71
2023/07/22 03:26:21;;;;;;;105.35;43.13;;;;;;;;;;4987816;28;20017;-71
2023/07/22 03:28:47;;;;;;;111.43;43.55;;;;;;;;;;5022838;28;20088;-72
2023/07/22 03:31:14;;;;;;;103.63;41.70;;;;;;;;;;5007716;28;20034;-71
2023/07/22 03:33:41;;;;;;;93.10;40.55;;;;;;;;;;4989165;28;20033;-71
2023/07/22 03:36:07;;;;;;;94.00;39.83;;;;;;;;;;5007536;28;20061;-72
2023/07/22 03:38:33;;;;;;;94.75;38.80;;;;;;;;;;5023829;28;20547;-72
2023/07/22 03:40:59;;;;;;;84.07;35.50;;;;;;;;;;5002288;28;20057;-71
2023/07/22 03:43:25;;;;;;;87.75;36.17;;;;;;;;;;5024063;28;20097;-73
2023/07/22 03:45:52;;;;;;;82.68;35.15;;;;;;;;;;4991481;28;20124;-71
2023/07/22 03:48:18;;;;;;;82.22;33.63;;;;;;;;;;5027844;28;20025;-71
2023/07/22 03:50:44;;;;;;;79.50;34.97;;;;;;;;;;5007229;28;20037;-71
2023/07/22 03:53:10;;;;;;;78.88;33.97;;;;;;;;;;5005835;28;20081;-71
2023/07/22 03:55:36;;;;;;;77.72;33.25;;;;;;;;;;5026007;28;20021;-70
2023/07/22 03:58:02;;;;;;;77.70;33.53;;;;;;;;;;5023901;28;20044;-71
2023/07/22 04:00:28;;;;;;;71.70;32.05;;;;;;;;;;4996670;28;20037;-72
2023/07/22 04:02:55;;;;;;;69.07;30.35;;;;;;;;;;5004801;28;20117;-72
2023/07/22 04:05:21;;;;;;;75.93;30.70;;;;;;;;;;4986532;28;20037;-72
2023/07/22 04:07:47;;;;;;;64.97;29.25;;;;;;;;;;5006700;28;20032;-73
2023/07/22 04:10:13;;;;;;;61.00;27.55;;;;;;;;;;5007437;28;20037;-71
2023/07/22 04:12:39;;;;;;;51.97;24.48;;;;;;;;;;5021567;28;20029;-72
2023/07/22 04:15:06;;;;;;;49.67;23.77;;;;;;;;;;5007666;28;20420;-72
2023/07/22 04:17:32;;;;;;;48.42;21.73;;;;;;;;;;5024338;28;20100;-72
2023/07/22 04:19:58;;;;;;;34.05;18.67;;;;;;;;;;5022944;28;20057;-71
2023/07/22 04:22:24;;;;;;;37.22;19.55;;;;;;;;;;4987455;28;20068;-71
2023/07/22 04:24:51;;;;;;;33.72;18.88;;;;;;;;;;5020777;28;20080;-72
2023/07/22 04:27:17;;;;;;;35.28;17.65;;;;;;;;;;5006869;28;20030;-72
2023/07/22 04:29:43;;;;;;;36.88;17.25;;;;;;;;;;5007945;28;20053;-72
2023/07/22 04:32:10;;;;;;;29.83;17.10;;;;;;;;;;5027287;28;20042;-71
2023/07/22 04:34:36;;;;;;;34.00;17.17;;;;;;;;;;5023332;28;20050;-72
2023/07/22 04:37:02;;;;;;;33.85;17.88;;;;;;;;;;5000398;28;20052;-71
2023/07/22 04:39:28;;;;;;;43.08;17.77;;;;;;;;;;5023216;28;20088;-71
2023/07/22 04:41:55;;;;;;;34.88;17.60;;;;;;;;;;4996907;28;20486;-72
2023/07/22 04:44:21;;;;;;;38.05;17.42;;;;;;;;;;5008086;28;20036;-72
2023/07/22 04:46:47;;;;;;;38.25;19.00;;;;;;;;;;5024092;28;20403;-72
2023/07/22 04:49:17;;;;;;;41.47;19.45;;;;;;;;;;5026018;28;20045;-70
2023/07/22 04:51:43;;;;;;;48.58;22.10;;;;;;;;;;5023684;28;20380;-72
2023/07/22 04:54:09;;;;;;;50.00;22.77;;;;;;;;;;5026152;28;20087;-72
2023/07/22 04:56:35;;;;;;;54.22;23.17;;;;;;;;;;5024756;28;20368;-72
2023/07/22 04:59:02;;;;;;;49.70;23.23;;;;;;;;;;5024826;28;20030;-70
2023/07/22 05:01:29;;;;;;;51.88;23.23;;;;;;;;;;5025193;28;20332;-70
2023/07/22 05:03:55;;;;;;;52.53;24.00;;;;;;;;;;5026734;28;20080;-72
2023/07/22 05:06:22;;;;;;;50.90;24.20;;;;;;;;;;5023338;28;20367;-71
2023/07/22 05:08:48;;;;;;;53.90;23.92;;;;;;;;;;4984072;28;20037;-72
2023/07/22 05:11:14;;;;;;;52.85;24.30;;;;;;;;;;5024619;28;20147;-71
2023/07/22 05:13:40;;;;;;;58.38;24.48;;;;;;;;;;5015859;28;20060;-71
2023/07/22 05:16:06;;;;;;;57.25;24.88;;;;;;;;;;5023979;28;20150;-71
2023/07/22 05:18:32;;;;;;;49.85;23.88;;;;;;;;;;5026158;28;20037;-71
2023/07/22 05:20:58;;;;;;;50.13;24.75;;;;;;;;;;5024842;28;20029;-71
2023/07/22 05:23:24;;;;;;;54.20;24.27;;;;;;;;;;5026085;28;20030;-71
2023/07/22 05:25:52;;;;;;;58.53;23.80;;;;;;;;;;5022069;28;20034;-72
2023/07/22 05:28:18;;;;;;;49.40;24.60;;;;;;;;;;5008054;28;20391;-71
2023/07/22 05:30:44;;;;;;;53.50;24.13;;;;;;;;;;5021551;28;20483;-71
2023/07/22 05:33:10;;;;;;;52.22;24.05;;;;;;;;;;5023082;28;20033;-72
2023/07/22 05:35:36;;;;;;;57.13;25.00;;;;;;;;;;5018028;28;20045;-71
2023/07/22 05:38:04;;;;;;;57.75;25.92;;;;;;;;;;5000566;28;20121;-70
2023/07/22 05:40:30;;;;;;;58.60;27.05;;;;;;;;;;4996136;28;20076;-71
2023/07/22 05:42:57;;;;;;;62.15;27.35;;;;;;;;;;5000191;28;20038;-72
2023/07/22 05:45:23;;;;;;;60.78;28.60;;;;;;;;;;5001610;28;20038;-71
2023/07/22 05:47:49;;;;;;;73.32;30.30;;;;;;;;;;5003746;28;20064;-71
2023/07/22 05:50:15;;;;;;;62.05;28.85;;;;;;;;;;4998224;28;20049;-70
2023/07/22 05:52:41;;;;;;;63.53;28.83;;;;;;;;;;4998931;28;20030;-70
2023/07/22 05:55:07;;;;;;;58.03;27.55;;;;;;;;;;5001787;28;20030;-71
2023/07/22 05:57:34;;;;;;;61.47;28.40;;;;;;;;;;5000149;28;20052;-71
2023/07/22 06:00:00;;;;;;;58.55;27.42;;;;;;;;;;5002925;28;20038;-70
2023/07/22 06:02:26;;;;;;;62.60;28.52;;;;;;;;;;5013277;28;20039;-71
2023/07/22 06:04:52;;;;;;;56.85;28.35;;;;;;;;;;5001073;28;20014;-71
2023/07/22 06:07:19;;;;;;;61.53;26.52;;;;;;;;;;5020803;28;20049;-70
2023/07/22 06:09:45;;;;;;;56.17;27.98;;;;;;;;;;5003611;28;20038;-70
2023/07/22 06:12:11;;;;;;;56.10;26.08;;;;;;;;;;4997767;28;20041;-70
2023/07/22 06:14:37;;;;;;;57.30;26.67;;;;;;;;;;5000977;28;20036;-70
2023/07/22 06:17:04;;;;;;;58.60;27.23;;;;;;;;;;5004057;28;20046;-70
2023/07/22 06:19:30;;;;;;;53.85;26.85;;;;;;;;;;5002941;28;20483;-71
2023/07/22 06:21:56;;;;;;;48.38;25.23;;;;;;;;;;5000365;28;20025;-70
2023/07/22 06:24:22;;;;;;;52.95;25.65;;;;;;;;;;4998850;28;20484;-69
2023/07/22 06:26:48;;;;;;;47.40;24.50;;;;;;;;;;4998220;28;20026;-70
2023/07/22 06:29:14;;;;;;;61.50;26.13;;;;;;;;;;5002242;28;20038;-70
2023/07/22 06:31:40;;;;;;;55.42;25.65;;;;;;;;;;5002649;28;20088;-70
2023/07/22 06:34:06;;;;;;;44.45;24.90;;;;;;;;;;5005774;28;20034;-71
2023/07/22 06:36:33;;;;;;;51.42;23.55;;;;;;;;;;5021261;28;20049;-70
2023/07/22 06:38:59;;;;;;;46.53;24.70;;;;;;;;;;5026193;28;20034;-69
2023/07/22 06:41:25;;;;;;;43.00;23.50;;;;;;;;;;5011801;28;20083;-71
2023/07/22 06:43:53;;;;;;;49.08;24.23;;;;;;;;;;5009275;28;20076;-70
2023/07/22 06:46:20;;;;;;;44.58;22.58;;;;;;;;;;5016081;28;20049;-71
2023/07/22 06:48:47;;;;;;;35.95;22.10;;;;;;;;;;5025541;28;20508;-70
2023/07/22 06:51:13;;;;;;;46.88;23.33;;;;;;;;;;5028264;28;20409;-70
2023/07/22 06:53:40;;;;;;;45.60;21.65;;;;;;;;;;5032061;28;20044;-69
2023/07/22 06:56:08;;;;;;;36.78;21.55;;;;;;;;;;5032493;28;20101;-69
2023/07/22 06:58:34;;;;;;;45.47;22.40;;;;;;;;;;5031700;28;20103;-70
2023/07/22 07:01:00;;;;;;;40.35;21.48;;;;;;;;;;5019460;28;20033;-69
2023/07/22 07:03:26;;;;;;;41.50;23.05;;;;;;;;;;5031248;28;20033;-71
2023/07/22 07:05:56;;;;;;;41.45;22.52;;;;;;;;;;5036940;28;20034;-69
2023/07/22 07:08:22;;;;;;;42.40;21.85;;;;;;;;;;5032456;28;20099;-69
2023/07/22 07:10:49;;;;;;;42.80;22.23;;;;;;;;;;5021485;28;20042;-74
2023/07/22 07:13:15;;;;;;;36.72;20.02;;;;;;;;;;5027930;28;20033;-69
2023/07/22 07:15:41;;;;;;;39.53;20.58;;;;;;;;;;5027806;28;20064;-68
2023/07/22 07:18:07;;;;;;;42.42;21.20;;;;;;;;;;5029246;28;20459;-68
2023/07/22 07:20:33;;;;;;;38.67;20.50;;;;;;;;;;5031507;28;20037;-67
2023/07/22 07:22:59;;;;;;;41.13;20.90;;;;;;;;;;5030315;28;20037;-68
2023/07/22 07:25:25;;;;;;;40.85;21.25;;;;;;;;;;5013621;28;20661;-68
2023/07/22 07:27:51;;;;;;;39.30;20.40;;;;;;;;;;5028180;28;20052;-68
2023/07/22 07:30:18;;;;;;;38.10;21.60;;;;;;;;;;5025825;28;20076;-67
2023/07/22 07:32:44;;;;;;;36.80;21.10;;;;;;;;;;5029009;28;20411;-67
2023/07/22 07:35:10;;;;;;;40.85;20.35;;;;;;;;;;5027462;28;20278;-68
2023/07/22 07:37:36;;;;;;;34.40;19.90;;;;;;;;;;5026683;28;20037;-67
2023/07/22 07:40:04;;;;;;;38.13;20.67;;;;;;;;;;5025750;28;20624;-67
2023/07/22 07:42:30;;;;;;;36.28;19.35;;;;;;;;;;5029896;28;20018;-71
2023/07/22 07:44:56;;;;;;;40.17;20.85;;;;;;;;;;5027639;28;20030;-68
2023/07/22 07:47:22;;;;;;;39.30;19.88;;;;;;;;;;5029409;28;20120;-68
2023/07/22 07:49:48;;;;;;;31.85;19.77;;;;;;;;;;5018952;28;20106;-68
2023/07/22 07:52:14;;;;;;;35.45;20.35;;;;;;;;;;5027873;28;20041;-68
2023/07/22 07:54:41;;;;;;;36.70;20.63;;;;;;;;;;5026578;28;20087;-68
2023/07/22 07:57:07;;;;;;;31.55;19.45;;;;;;;;;;5028279;28;20033;-67
2023/07/22 07:59:33;;;;;;;37.30;19.60;;;;;;;;;;5027279;28;20037;-67
2023/07/22 08:01:59;;;;;;;33.40;17.45;;;;;;;;;;5026150;28;20036;-68
2023/07/22 08:04:25;;;;;;;37.55;18.75;;;;;;;;;;5024707;28;20289;-68
2023/07/22 08:06:51;;;;;;;36.38;17.42;;;;;;;;;;5027905;28;20029;-67
2023/07/22 08:09:19;;;;;;;27.17;16.90;;;;;;;;;;5028402;28;20025;-66
2023/07/22 08:11:45;;;;;;;37.90;18.52;;;;;;;;;;5002604;28;20037;-69
2023/07/22 08:14:11;;;;;;;28.90;16.95;;;;;;;;;;5013999;28;20034;-67
2023/07/22 08:16:38;;;;;;;31.55;17.52;;;;;;;;;;5031181;28;20038;-68
2023/07/22 08:19:04;;;;;;;30.10;18.15;;;;;;;;;;5028543;28;20075;-67
2023/07/22 08:21:30;;;;;;;31.70;18.88;;;;;;;;;;5027430;28;20038;-68
2023/07/22 08:23:57;;;;;;;37.05;18.95;;;;;;;;;;5018558;28;20022;-68
2023/07/22 08:26:23;;;;;;;32.20;17.63;;;;;;;;;;5022066;28;20033;-68
2023/07/22 08:28:49;;;;;;;33.47;17.95;;;;;;;;;;5029807;28;20040;-68
2023/07/22 08:31:16;;;;;;;29.60;17.63;;;;;;;;;;5011888;28;20113;-67
2023/07/22 08:33:45;;;;;;;27.48;16.70;;;;;;;;;;5030757;28;20041;-67
2023/07/22 08:36:11;;;;;;;25.00;15.35;;;;;;;;;;5025747;28;20049;-67
2023/07/22 08:38:37;;;;;;;27.13;16.70;;;;;;;;;;5024320;28;20117;-68
2023/07/22 08:41:03;;;;;;;31.35;16.73;;;;;;;;;;5027810;28;20053;-68
2023/07/22 08:43:30;;;;;;;25.90;16.00;;;;;;;;;;5029552;28;20038;-68
2023/07/22 08:45:58;;;;;;;22.40;16.40;;;;;;;;;;5029444;28;20580;-68
2023/07/22 08:48:26;;;;;;;24.30;15.75;;;;;;;;;;5029411;28;20044;-68
2023/07/22 08:50:59;;;;;;;30.02;16.20;;;;;;;;;;5028004;28;20037;-68
2023/07/22 08:53:25;;;;;;;24.05;16.20;;;;;;;;;;5028938;28;20044;-68
2023/07/22 08:55:52;;;;;;;26.25;15.02;;;;;;;;;;5029549;28;20044;-67
2023/07/22 08:58:18;;;;;;;23.70;14.55;;;;;;;;;;5009470;28;20498;-68
2023/07/22 09:00:44;;;;;;;22.52;13.68;;;;;;;;;;5027664;28;20064;-67
2023/07/22 09:03:11;;;;;;;19.77;12.45;;;;;;;;;;5022407;28;20179;-68
2023/07/22 09:05:38;;;;;;;21.50;11.95;;;;;;;;;;5022765;28;20037;-68
2023/07/22 09:08:06;;;;;;;19.13;10.90;;;;;;;;;;5026779;28;20380;-68
2023/07/22 09:10:33;;;;;;;21.50;12.07;;;;;;;;;;5020153;28;20410;-68
2023/07/22 09:13:03;;;;;;;20.10;10.93;;;;;;;;;;5028227;28;20061;-68
2023/07/22 09:15:29;;;;;;;22.05;11.00;;;;;;;;;;5027848;28;20521;-68
2023/07/22 09:17:56;;;;;;;23.65;12.98;;;;;;;;;;5028006;28;20087;-68
2023/07/22 09:20:22;;;;;;;22.75;11.35;;;;;;;;;;5028510;28;20060;-68
2023/07/22 09:22:49;;;;;;;18.67;10.15;;;;;;;;;;5028961;28;20025;-68
2023/07/22 09:25:20;;;;;;;19.00;10.30;;;;;;;;;;5028929;28;20029;-68
2023/07/22 09:27:50;;;;;;;16.73;9.32;;;;;;;;;;5024097;28;20099;-68
2023/07/22 09:30:29;;;;;;;17.40;9.53;;;;;;;;;;5020575;28;20098;-68
2023/07/22 09:32:59;;;;;;;17.00;9.45;;;;;;;;;;5026796;28;20061;-70
2023/07/22 09:35:28;;;;;;;17.20;9.65;;;;;;;;;;5027942;28;20063;-68
2023/07/22 09:37:54;;;;;;;16.45;9.55;;;;;;;;;;5024408;28;20080;-68
2023/07/22 09:40:21;;;;;;;19.42;9.18;;;;;;;;;;5022031;28;20025;-67
2023/07/22 09:42:51;;;;;;;14.75;8.23;;;;;;;;;;5026657;28;20033;-67
2023/07/22 09:45:19;;;;;;;20.67;8.35;;;;;;;;;;5013640;28;20037;-67
2023/07/22 09:47:46;;;;;;;12.93;8.13;;;;;;;;;;5026936;28;20029;-68
2023/07/22 09:50:16;;;;;;;15.30;8.07;;;;;;;;;;5027364;28;21278;-67
2023/07/22 09:52:47;;;;;;;23.75;8.73;;;;;;;;;;5022950;28;20076;-66
2023/07/22 09:55:14;;;;;;;17.13;8.40;;;;;;;;;;5025450;28;20088;-67
2023/07/22 09:57:44;;;;;;;16.63;7.90;;;;;;;;;;5008891;28;20529;-67
2023/07/22 10:00:11;;;;;;;16.10;8.25;;;;;;;;;;5026789;28;20407;-68
2023/07/22 10:02:42;;;;;;;17.80;8.20;;;;;;;;;;5009247;28;20033;-68
2023/07/22 10:05:09;;;;;;;21.02;8.40;;;;;;;;;;5019412;28;20038;-72
2023/07/22 10:07:36;;;;;;;14.77;8.52;;;;;;;;;;5022297;28;20056;-69
2023/07/22 10:10:02;;;;;;;17.40;9.88;;;;;;;;;;5025180;28;20573;-69
2023/07/22 10:12:28;;;;;;;15.45;8.15;;;;;;;;;;5003868;28;20038;-69
2023/07/22 10:14:55;;;;;;;10.48;6.90;;;;;;;;;;5025973;28;20037;-67
2023/07/22 10:17:22;;;;;;;15.60;6.32;;;;;;;;;;5015026;28;20093;-68
2023/07/22 10:19:48;;;;;;;16.52;7.60;;;;;;;;;;5021137;28;20072;-68
2023/07/22 10:22:14;;;;;;;13.45;6.03;;;;;;;;;;5017585;28;20033;-68
2023/07/22 10:24:41;;;;;;;11.65;5.60;;;;;;;;;;5009117;28;20030;-68
2023/07/22 10:27:07;;;;;;;19.45;5.72;;;;;;;;;;5021574;28;20038;-69
2023/07/22 10:29:34;;;;;;;12.50;5.50;;;;;;;;;;4990320;28;20026;-68
2023/07/22 10:32:00;;;;;;;20.38;6.38;;;;;;;;;;5027908;28;20053;-68
2023/07/22 10:34:27;;;;;;;12.50;5.97;;;;;;;;;;5029749;28;20394;-68
2023/07/22 10:36:58;;;;;;;13.75;5.78;;;;;;;;;;5027690;28;20034;-68
2023/07/22 10:39:28;;;;;;;12.43;6.30;;;;;;;;;;5030991;28;20026;-69
2023/07/22 10:42:06;;;;;;;12.67;6.40;;;;;;;;;;5030487;28;20034;-68
2023/07/22 10:44:42;;;;;;;10.48;5.65;;;;;;;;;;5011964;28;20317;-68
2023/07/22 10:47:08;;;;;;;9.13;5.68;;;;;;;;;;5009197;28;20546;-68
2023/07/22 10:50:04;;;;;;;11.27;5.93;;;;;;;;;;5029061;28;20038;-67
2023/07/22 10:52:44;;;;;;;10.75;6.18;;;;;;;;;;5016599;28;20044;-67
2023/07/22 10:55:19;;;;;;;11.07;5.97;;;;;;;;;;5027428;28;20069;-68
2023/07/22 10:57:52;;;;;;;13.77;6.78;;;;;;;;;;5029450;28;20112;-69
2023/07/22 11:00:22;;;;;;;13.07;6.97;;;;;;;;;;5028167;28;20100;-68
2023/07/22 11:03:08;;;;;;;15.50;7.70;;;;;;;;;;5028742;28;20029;-68
2023/07/22 11:05:55;;;;;;;15.98;7.88;;;;;;;;;;5028774;28;20047;-69
2023/07/22 11:08:37;;;;;;;18.30;8.63;;;;;;;;;;5029082;28;20038;-68
2023/07/22 11:11:04;;;;;;;10.27;7.68;;;;;;;;;;5026291;28;20029;-69
2023/07/22 11:13:35;;;;;;;13.30;8.25;;;;;;;;;;5029090;28;20036;-68
2023/07/22 11:16:01;;;;;;;18.95;9.20;;;;;;;;;;5028748;28;20036;-68
2023/07/22 11:18:40;;;;;;;13.43;7.82;;;;;;;;;;5028313;28;20406;-69
2023/07/22 11:21:10;;;;;;;18.38;8.93;;;;;;;;;;5026253;28;20486;-68
2023/07/22 11:23:36;;;;;;;14.10;7.93;;;;;;;;;;5028527;28;20036;-69
2023/07/22 11:26:03;;;;;;;18.00;8.07;;;;;;;;;;5013195;28;20030;-69
2023/07/22 11:28:31;;;;;;;14.48;7.75;;;;;;;;;;5015433;28;20046;-68
2023/07/22 11:30:58;;;;;;;14.43;7.45;;;;;;;;;;5034092;28;20033;-67
2023/07/22 11:33:25;;;;;;;10.65;5.78;;;;;;;;;;5018038;28;20079;-68
2023/07/22 11:35:51;;;;;;;9.20;5.05;;;;;;;;;;5034271;28;20441;-67
2023/07/22 11:38:17;;;;;;;13.98;5.05;;;;;;;;;;5015898;28;20069;-68
2023/07/22 11:40:43;;;;;;;6.07;4.00;;;;;;;;;;5032140;28;20030;-68
2023/07/22 11:43:09;;;;;;;10.70;4.70;;;;;;;;;;5031582;28;20025;-68
2023/07/22 11:45:38;;;;;;;9.55;4.55;;;;;;;;;;5031783;28;20485;-69
2023/07/22 11:48:09;;;;;;;9.27;4.90;;;;;;;;;;5032149;28;20040;-68
2023/07/22 11:50:35;;;;;;;12.38;5.38;;;;;;;;;;5030530;28;20048;-68
2023/07/22 11:53:02;;;;;;;8.90;4.80;;;;;;;;;;5032249;28;20030;-68
2023/07/22 11:55:28;;;;;;;8.88;4.43;;;;;;;;;;5015159;28;20109;-68
2023/07/22 11:57:54;;;;;;;13.55;4.88;;;;;;;;;;5032939;28;20037;-68
2023/07/22 12:00:21;;;;;;;9.27;4.40;;;;;;;;;;5031542;28;20037;-67
2023/07/22 12:02:47;;;;;;;11.57;4.60;;;;;;;;;;5031181;28;20018;-67
2023/07/22 12:05:20;;;;;;;10.88;5.18;;;;;;;;;;5032251;28;20030;-67
2023/07/22 12:07:46;;;;;;;8.48;4.53;;;;;;;;;;5031222;28;20048;-67
2023/07/22 12:10:13;;;;;;;10.35;4.35;;;;;;;;;;5031088;28;20029;-68
2023/07/22 12:12:48;;;;;;;9.30;4.40;;;;;;;;;;5030712;28;20033;-67
2023/07/22 12:15:18;;;;;;;10.52;4.20;;;;;;;;;;5031967;28;20509;-68
2023/07/22 12:17:52;;;;;;;8.80;3.60;;;;;;;;;;5032654;28;20037;-67
2023/07/22 12:20:19;;;;;;;10.75;3.78;;;;;;;;;;5031609;28;20041;-68
2023/07/22 12:22:45;;;;;;;7.80;4.13;;;;;;;;;;5017139;28;20030;-68
2023/07/22 12:25:11;;;;;;;7.50;3.40;;;;;;;;;;5032361;28;20033;-68
2023/07/22 12:27:38;;;;;;;7.22;3.00;;;;;;;;;;5016421;28;20033;-68
2023/07/22 12:30:05;;;;;;;8.18;3.13;;;;;;;;;;5015063;28;20109;-68
2023/07/22 12:32:31;;;;;;;7.85;3.10;;;;;;;;;;5014018;28;20443;-68
2023/07/22 12:34:57;;;;;;;7.88;3.58;;;;;;;;;;5030337;28;20054;-68
2023/07/22 12:37:25;;;;;;;10.15;3.65;;;;;;;;;;5012617;28;20077;-68
2023/07/22 12:39:51;;;;;;;10.40;3.05;;;;;;;;;;5030229;28;20045;-68
2023/07/22 12:42:17;;;;;;;7.47;2.75;;;;;;;;;;5031074;28;20045;-68
2023/07/22 12:44:43;;;;;;;6.38;2.88;;;;;;;;;;5031145;28;20047;-67
2023/07/22 12:47:09;;;;;;;7.50;2.88;;;;;;;;;;5013802;28;20034;-68
2023/07/22 12:49:35;;;;;;;10.70;2.97;;;;;;;;;;5031051;28;20387;-68
2023/07/22 12:52:04;;;;;;;6.82;2.63;;;;;;;;;;5030003;28;20033;-67
2023/07/22 12:54:33;;;;;;;6.05;2.42;;;;;;;;;;5012808;28;20056;-68
2023/07/22 12:56:59;;;;;;;8.18;2.78;;;;;;;;;;5016782;28;20026;-68
2023/07/22 12:59:25;;;;;;;5.68;2.47;;;;;;;;;;5011683;28;20433;-67
2023/07/22 13:01:52;;;;;;;7.63;2.33;;;;;;;;;;5023721;28;20042;-66
2023/07/22 13:04:18;;;;;;;4.47;2.08;;;;;;;;;;5031342;28;20136;-67
2023/07/22 13:06:44;;;;;;;9.18;2.33;;;;;;;;;;5031395;28;20125;-67
2023/07/22 13:09:10;;;;;;;10.70;2.70;;;;;;;;;;5013533;28;20068;-68
2023/07/22 13:11:36;;;;;;;8.98;2.85;;;;;;;;;;5029591;28;20064;-69
2023/07/22 13:14:03;;;;;;;8.43;3.17;;;;;;;;;;5031165;28;20038;-68
2023/07/22 13:16:29;;;;;;;6.00;2.15;;;;;;;;;;5031154;28;20076;-68
2023/07/22 13:18:55;;;;;;;8.65;2.30;;;;;;;;;;5030424;28;20104;-68
2023/07/22 13:21:21;;;;;;;8.82;2.45;;;;;;;;;;5030913;28;20028;-69
2023/07/22 13:23:48;;;;;;;8.18;2.40;;;;;;;;;;5031582;28;20036;-67
2023/07/22 13:26:14;;;;;;;6.72;2.30;;;;;;;;;;5029502;28;20490;-67
2023/07/22 13:28:40;;;;;;;8.52;2.70;;;;;;;;;;5029990;28;20376;-68
2023/07/22 13:31:06;;;;;;;7.63;2.60;;;;;;;;;;5013056;28;20033;-68
2023/07/22 13:33:33;;;;;;;6.25;2.88;;;;;;;;;;5013362;28;20127;-68
2023/07/22 13:35:59;;;;;;;12.32;3.50;;;;;;;;;;5030343;28;20076;-67
2023/07/22 13:38:25;;;;;;;11.73;3.00;;;;;;;;;;5011111;28;20038;-68
2023/07/22 13:40:52;;;;;;;6.57;3.33;;;;;;;;;;5012230;28;20040;-68
2023/07/22 13:43:18;;;;;;;8.07;2.75;;;;;;;;;;5027921;28;20117;-68
2023/07/22 13:45:44;;;;;;;6.47;2.80;;;;;;;;;;5029331;28;20379;-68
2023/07/22 13:48:11;;;;;;;5.60;2.50;;;;;;;;;;5029178;28;20486;-67
2023/07/22 13:50:38;;;;;;;4.63;2.55;;;;;;;;;;5029309;28;20498;-67
2023/07/22 13:53:04;;;;;;;4.35;2.50;;;;;;;;;;5029388;28;20486;-67
2023/07/22 13:55:30;;;;;;;9.48;3.15;;;;;;;;;;5030175;28;20025;-68
2023/07/22 13:57:56;;;;;;;5.90;2.58;;;;;;;;;;5004974;28;20048;-68
2023/07/22 14:00:23;;;;;;;7.32;2.80;;;;;;;;;;5016922;28;20091;-67
2023/07/22 14:02:49;;;;;;;8.20;3.10;;;;;;;;;;5015270;28;20046;-67
2023/07/22 14:05:15;;;;;;;6.93;3.15;;;;;;;;;;5015928;28;20396;-67
2023/07/22 14:07:41;;;;;;;6.85;2.72;;;;;;;;;;5024379;28;20099;-67
2023/07/22 14:10:08;;;;;;;7.40;2.85;;;;;;;;;;5017518;28;20045;-67
2023/07/22 14:12:35;;;;;;;4.63;2.60;;;;;;;;;;5011842;28;20033;-68
2023/07/22 14:15:03;;;;;;;7.03;2.22;;;;;;;;;;5001816;28;20030;-69
2023/07/22 14:17:32;;;;;;;8.18;2.70;;;;;;;;;;5026240;28;20091;-68
2023/07/22 14:19:58;;;;;;;6.85;2.72;;;;;;;;;;5021291;28;20033;-68